Time;durP1;ratioP1;P1;durP2;ratioP2;P2;SDS_P1;SDS_P2;PMS_P1;PMS_P2;Temp;Humidity;BMP_temperature;BMP_pressure;BME280_temperature;BME280_humidity;BME280_pressure;Samples;Min_cycle;Max_cycle;Signal;HPM_P1;HPM_P2
2023/03/02 00:00:56;;;;;;;6.60;2.88;;;4.10;99.90;;;;;;5014799;28;20046;-57
2023/03/02 00:03:22;;;;;;;6.15;3.00;;;4.10;99.90;;;;;;5014542;28;20092;-60
2023/03/02 00:05:49;;;;;;;6.03;3.00;;;4.10;99.90;;;;;;5014684;28;20132;-60
2023/03/02 00:08:16;;;;;;;5.82;2.88;;;4.10;99.90;;;;;;5014263;28;20464;-59
2023/03/02 00:10:42;;;;;;;5.43;2.60;;;4.00;99.90;;;;;;5014575;28;20052;-58
2023/03/02 00:13:09;;;;;;;5.90;3.30;;;4.00;99.90;;;;;;5012910;28;20104;-59
2023/03/02 00:15:36;;;;;;;5.00;3.05;;;4.00;99.90;;;;;;5014474;28;20124;-59
2023/03/02 00:18:03;;;;;;;5.32;3.25;;;3.90;99.90;;;;;;5014732;28;20372;-60
2023/03/02 00:20:30;;;;;;;6.32;3.33;;;3.90;99.90;;;;;;5014338;28;20454;-58
2023/03/02 00:22:56;;;;;;;5.47;3.67;;;3.80;99.90;;;;;;5014391;28;20046;-59
2023/03/02 00:25:23;;;;;;;6.45;3.90;;;3.80;99.90;;;;;;5014325;28;20041;-57
2023/03/02 00:27:50;;;;;;;7.03;4.05;;;3.80;99.90;;;;;;5014434;28;20050;-55
2023/03/02 00:30:17;;;;;;;8.63;4.60;;;3.70;99.90;;;;;;5013352;28;20050;-54
2023/03/02 00:32:44;;;;;;;9.52;4.35;;;3.70;99.90;;;;;;5012843;28;20060;-59
2023/03/02 00:35:11;;;;;;;7.45;4.60;;;3.70;99.90;;;;;;5012785;28;20081;-57
2023/03/02 00:37:38;;;;;;;8.70;4.47;;;3.60;99.90;;;;;;5012724;28;20424;-54
2023/03/02 00:40:08;;;;;;;6.50;5.10;;;3.60;99.90;;;;;;5013956;28;20517;-54
2023/03/02 00:42:35;;;;;;;7.00;4.38;;;3.60;99.90;;;;;;5013922;28;20030;-58
2023/03/02 00:45:02;;;;;;;6.60;5.13;;;3.60;99.90;;;;;;5013113;28;20601;-60
2023/03/02 00:47:29;;;;;;;7.22;5.07;;;3.60;99.90;;;;;;5014048;28;20042;-58
2023/03/02 00:49:55;;;;;;;7.40;5.53;;;3.60;99.90;;;;;;5012537;28;20127;-57
2023/03/02 00:52:22;;;;;;;9.80;5.88;;;3.60;99.90;;;;;;5012445;28;20132;-55
2023/03/02 00:54:49;;;;;;;9.40;5.63;;;3.60;99.90;;;;;;5012667;28;20046;-58
2023/03/02 00:57:16;;;;;;;9.32;6.40;;;3.60;99.90;;;;;;5012777;28;20049;-55
2023/03/02 00:59:43;;;;;;;10.02;5.85;;;3.60;99.90;;;;;;5012346;28;20443;-56
2023/03/02 01:02:23;;;;;;;8.50;5.80;;;3.60;99.90;;;;;;5012303;28;20045;-57
2023/03/02 01:04:52;;;;;;;9.00;6.15;;;3.60;99.90;;;;;;5012667;28;20533;-56
2023/03/02 01:07:19;;;;;;;8.10;5.65;;;3.60;99.90;;;;;;5013616;28;20116;-58
2023/03/02 01:09:47;;;;;;;9.15;6.15;;;3.60;99.90;;;;;;5014177;28;20124;-59
2023/03/02 01:12:14;;;;;;;9.18;6.13;;;3.60;99.90;;;;;;5013275;28;20038;-57
2023/03/02 01:14:41;;;;;;;9.80;5.78;;;3.60;99.90;;;;;;5013789;28;20046;-60
2023/03/02 01:17:08;;;;;;;9.10;5.97;;;3.70;99.90;;;;;;5013834;28;20112;-58
2023/03/02 01:19:34;;;;;;;8.43;6.60;;;3.70;99.90;;;;;;5012647;28;20409;-61
2023/03/02 01:22:01;;;;;;;10.95;6.88;;;3.70;99.90;;;;;;5012927;28;20093;-59
2023/03/02 01:24:28;;;;;;;10.85;6.88;;;3.70;99.90;;;;;;5012617;28;20049;-58
2023/03/02 01:26:55;;;;;;;10.45;7.07;;;3.70;99.90;;;;;;5013781;28;20042;-55
2023/03/02 01:29:21;;;;;;;8.95;6.38;;;3.70;99.90;;;;;;5013550;28;20488;-59
2023/03/02 01:31:48;;;;;;;9.98;7.05;;;3.70;99.90;;;;;;5013463;28;20473;-54
2023/03/02 01:34:15;;;;;;;11.18;8.27;;;3.70;99.90;;;;;;5013512;28;20044;-56
2023/03/02 01:36:45;;;;;;;10.13;7.85;;;3.70;99.90;;;;;;5012802;28;20385;-58
2023/03/02 01:39:14;;;;;;;10.48;7.65;;;3.70;99.90;;;;;;5012354;28;20046;-60
2023/03/02 01:41:42;;;;;;;11.73;7.82;;;3.70;99.90;;;;;;5011860;28;20100;-52
2023/03/02 01:44:08;;;;;;;10.85;8.75;;;3.70;99.90;;;;;;5011821;28;20488;-52
2023/03/02 01:46:35;;;;;;;12.00;8.57;;;3.80;99.90;;;;;;5012307;28;20046;-57
2023/03/02 01:49:02;;;;;;;10.93;8.23;;;3.80;99.90;;;;;;5012380;28;20097;-58
2023/03/02 01:51:38;;;;;;;13.25;9.07;;;3.80;99.90;;;;;;5011903;28;20477;-55
2023/03/02 01:54:05;;;;;;;10.82;8.15;;;3.80;99.90;;;;;;5013385;28;20034;-59
2023/03/02 01:56:33;;;;;;;13.18;9.13;;;3.80;99.90;;;;;;5015039;28;20038;-60
2023/03/02 01:59:00;;;;;;;13.50;8.50;;;3.80;99.90;;;;;;5015287;28;20046;-57
2023/03/02 02:01:27;;;;;;;12.30;9.20;;;3.80;99.90;;;;;;5016909;28;20366;-60
2023/03/02 02:03:54;;;;;;;12.23;8.98;;;3.80;99.90;;;;;;5016738;28;20038;-56
2023/03/02 02:06:21;;;;;;;15.23;9.07;;;3.70;99.90;;;;;;4999192;28;20088;-56
2023/03/02 02:08:48;;;;;;;13.10;9.30;;;3.70;99.90;;;;;;5015168;28;20050;-58
2023/03/02 02:11:15;;;;;;;14.48;9.07;;;3.70;99.90;;;;;;5015651;28;20441;-56
2023/03/02 02:13:42;;;;;;;15.25;9.30;;;3.70;99.90;;;;;;5016251;28;20106;-54
2023/03/02 02:16:08;;;;;;;12.30;9.30;;;3.70;99.90;;;;;;5016585;28;20393;-55
2023/03/02 02:18:35;;;;;;;12.82;9.15;;;3.70;99.90;;;;;;5015167;28;20433;-58
2023/03/02 02:21:03;;;;;;;14.52;9.10;;;3.70;99.90;;;;;;5016584;28;20034;-57
2023/03/02 02:23:30;;;;;;;12.43;8.57;;;3.60;99.90;;;;;;5016351;28;20091;-59
2023/03/02 02:25:57;;;;;;;12.25;9.32;;;3.60;99.90;;;;;;5016189;28;20385;-54
2023/03/02 02:28:24;;;;;;;11.85;8.52;;;3.60;99.90;;;;;;5014820;28;20045;-57
2023/03/02 02:30:50;;;;;;;11.65;9.13;;;3.60;99.90;;;;;;5016363;28;20515;-56
2023/03/02 02:33:17;;;;;;;11.65;8.55;;;3.50;99.90;;;;;;5016263;28;20504;-58
2023/03/02 02:35:44;;;;;;;9.27;7.68;;;3.50;99.90;;;;;;5016215;28;20092;-58
2023/03/02 02:38:11;;;;;;;11.88;7.80;;;3.40;99.90;;;;;;5015058;28;20046;-57
2023/03/02 02:40:38;;;;;;;12.68;8.52;;;3.30;99.90;;;;;;4998663;28;20451;-55
2023/03/02 02:43:05;;;;;;;12.48;8.15;;;3.30;99.90;;;;;;5014498;28;20042;-60
2023/03/02 02:45:34;;;;;;;11.98;8.38;;;3.20;99.90;;;;;;5014537;28;20050;-58
2023/03/02 02:48:01;;;;;;;11.70;8.38;;;3.20;99.90;;;;;;5014871;28;20077;-58
2023/03/02 02:50:28;;;;;;;13.15;8.32;;;3.10;99.90;;;;;;5015923;28;20042;-57
2023/03/02 02:52:55;;;;;;;11.88;8.75;;;3.10;99.90;;;;;;5015660;28;20050;-59
2023/03/02 02:55:22;;;;;;;13.65;9.05;;;3.10;99.90;;;;;;5014462;28;20045;-57
2023/03/02 02:57:50;;;;;;;12.05;8.85;;;3.00;99.90;;;;;;5014544;28;20046;-59
2023/03/02 03:00:17;;;;;;;16.60;9.18;;;3.00;99.90;;;;;;5015413;28;20041;-59
2023/03/02 03:02:44;;;;;;;13.35;8.77;;;3.00;99.90;;;;;;5014038;28;20042;-58
2023/03/02 03:05:11;;;;;;;11.90;9.60;;;3.00;99.90;;;;;;5014367;28;20436;-58
2023/03/02 03:07:38;;;;;;;14.57;9.65;;;2.90;99.90;;;;;;5014565;28;20044;-55
2023/03/02 03:10:06;;;;;;;12.52;9.23;;;2.80;99.90;;;;;;5014511;28;20054;-57
2023/03/02 03:12:33;;;;;;;13.85;10.38;;;2.80;99.90;;;;;;5013793;28;20042;-60
2023/03/02 03:15:00;;;;;;;15.23;9.75;;;2.70;99.90;;;;;;5014522;28;20067;-59
2023/03/02 03:17:27;;;;;;;11.73;9.40;;;2.70;99.90;;;;;;5015270;28;20052;-55
2023/03/02 03:20:05;;;;;;;13.32;10.15;;;2.70;99.90;;;;;;5014366;28;20045;-56
2023/03/02 03:22:34;;;;;;;13.32;10.85;;;2.60;99.90;;;;;;5015530;28;20034;-56
2023/03/02 03:25:01;;;;;;;13.73;10.75;;;2.60;99.90;;;;;;5013554;28;20045;-57
2023/03/02 03:27:28;;;;;;;19.23;10.43;;;2.60;99.90;;;;;;5013966;28;20041;-57
2023/03/02 03:29:56;;;;;;;13.00;10.00;;;2.50;99.90;;;;;;4997499;28;20054;-54
2023/03/02 03:32:23;;;;;;;15.60;10.85;;;2.50;99.90;;;;;;5014904;28;20092;-60
2023/03/02 03:34:53;;;;;;;15.55;10.80;;;2.50;99.90;;;;;;5013642;28;20056;-55
2023/03/02 03:37:25;;;;;;;15.82;11.23;;;2.40;99.90;;;;;;5013349;28;20117;-59
2023/03/02 03:39:52;;;;;;;16.30;11.70;;;2.40;99.90;;;;;;5013264;28;20072;-55
2023/03/02 03:42:19;;;;;;;16.48;11.20;;;2.40;99.90;;;;;;5013070;28;20038;-59
2023/03/02 03:44:46;;;;;;;14.70;11.27;;;2.40;99.90;;;;;;5013412;28;20034;-60
2023/03/02 03:47:13;;;;;;;15.38;11.23;;;2.30;99.90;;;;;;5013023;28;20061;-57
2023/03/02 03:49:40;;;;;;;16.05;11.25;;;2.30;99.90;;;;;;5014504;28;20070;-58
2023/03/02 03:52:07;;;;;;;19.88;11.60;;;2.30;99.90;;;;;;5013312;28;20042;-58
2023/03/02 03:54:34;;;;;;;15.30;11.75;;;2.30;99.90;;;;;;5014411;28;20037;-60
2023/03/02 03:57:01;;;;;;;18.65;11.30;;;2.20;99.90;;;;;;5014384;28;20111;-55
2023/03/02 03:59:28;;;;;;;17.35;11.65;;;2.20;99.90;;;;;;5014283;28;20045;-55
2023/03/02 04:01:58;;;;;;;16.85;11.70;;;2.20;99.90;;;;;;5013354;28;20038;-59
2023/03/02 04:04:32;;;;;;;17.65;11.23;;;2.20;99.90;;;;;;5013302;28;20046;-56
2023/03/02 04:07:03;;;;;;;16.25;12.13;;;2.20;99.90;;;;;;5013040;28;20519;-56
2023/03/02 04:09:36;;;;;;;15.50;11.73;;;2.10;99.90;;;;;;5013256;28;20038;-57
2023/03/02 04:12:04;;;;;;;15.95;11.80;;;2.10;99.90;;;;;;5012937;28;20061;-58
2023/03/02 04:14:31;;;;;;;16.50;11.98;;;2.10;99.90;;;;;;5013976;28;20417;-57
2023/03/02 04:16:58;;;;;;;17.77;11.70;;;2.10;99.90;;;;;;5014465;28;20519;-57
2023/03/02 04:19:25;;;;;;;18.02;11.75;;;2.10;99.90;;;;;;5012732;28;20141;-57
2023/03/02 04:21:57;;;;;;;15.27;11.93;;;2.00;99.90;;;;;;5012924;28;20428;-58
2023/03/02 04:24:24;;;;;;;15.98;12.07;;;2.00;99.90;;;;;;5012422;28;20068;-56
2023/03/02 04:26:54;;;;;;;16.38;12.00;;;2.00;99.90;;;;;;5012810;28;20046;-57
2023/03/02 04:29:22;;;;;;;14.95;12.20;;;1.90;99.90;;;;;;5012851;28;20057;-58
2023/03/02 04:31:50;;;;;;;14.95;12.57;;;1.90;99.90;;;;;;5012706;28;20053;-57
2023/03/02 04:34:19;;;;;;;16.98;12.43;;;1.90;99.90;;;;;;5012567;28;20152;-57
2023/03/02 04:36:46;;;;;;;17.98;12.90;;;1.90;99.90;;;;;;4996648;28;20050;-59
2023/03/02 04:39:14;;;;;;;18.67;13.15;;;1.90;99.90;;;;;;5012908;28;20045;-58
2023/03/02 04:41:43;;;;;;;18.98;13.27;;;1.90;99.90;;;;;;5012517;28;20046;-58
2023/03/02 04:44:10;;;;;;;19.85;13.95;;;1.90;99.90;;;;;;5013764;28;20469;-59
2023/03/02 04:46:37;;;;;;;18.35;13.63;;;1.80;99.90;;;;;;5013930;28;20121;-57
2023/03/02 04:49:03;;;;;;;18.58;14.50;;;1.90;99.90;;;;;;5012490;28;20065;-54
2023/03/02 04:51:30;;;;;;;21.15;14.40;;;1.90;99.90;;;;;;5013792;28;20049;-53
2023/03/02 04:53:57;;;;;;;20.67;14.10;;;1.80;99.90;;;;;;5013507;28;20417;-58
2023/03/02 04:56:24;;;;;;;18.27;14.05;;;1.80;99.90;;;;;;5013293;28;20389;-59
2023/03/02 04:58:50;;;;;;;21.80;14.68;;;1.80;99.90;;;;;;5013687;28;20069;-58
2023/03/02 05:01:17;;;;;;;21.05;14.75;;;1.80;99.90;;;;;;5012316;28;20519;-56
2023/03/02 05:03:44;;;;;;;21.38;15.02;;;1.80;99.90;;;;;;5013654;28;20049;-56
2023/03/02 05:06:11;;;;;;;20.67;14.52;;;1.80;99.90;;;;;;5012309;28;20049;-55
2023/03/02 05:08:37;;;;;;;21.48;15.48;;;1.70;99.90;;;;;;5013148;28;20387;-57
2023/03/02 05:11:05;;;;;;;21.13;15.00;;;1.70;99.90;;;;;;5013260;28;20045;-57
2023/03/02 05:13:31;;;;;;;23.17;15.50;;;1.70;99.90;;;;;;5013242;28;20088;-59
2023/03/02 05:15:58;;;;;;;19.63;15.38;;;1.60;99.90;;;;;;5013268;28;20050;-58
2023/03/02 05:18:25;;;;;;;22.90;15.35;;;1.70;99.90;;;;;;5013314;28;20065;-58
2023/03/02 05:20:52;;;;;;;21.17;15.77;;;1.60;99.90;;;;;;5013168;28;20092;-59
2023/03/02 05:23:27;;;;;;;20.98;15.23;;;1.60;99.90;;;;;;5013045;28;20073;-58
2023/03/02 05:25:54;;;;;;;21.25;15.80;;;1.60;99.90;;;;;;5013752;28;20041;-58
2023/03/02 05:28:20;;;;;;;26.90;16.30;;;1.60;99.90;;;;;;5013140;28;20042;-59
2023/03/02 05:30:47;;;;;;;21.83;16.27;;;1.60;99.90;;;;;;5013132;28;20046;-56
2023/03/02 05:33:14;;;;;;;21.63;14.88;;;1.50;99.90;;;;;;5016762;28;20061;-57
2023/03/02 05:35:41;;;;;;;21.90;15.43;;;1.50;99.90;;;;;;5016928;28;20037;-57
2023/03/02 05:38:07;;;;;;;22.10;16.60;;;1.50;99.90;;;;;;5017128;28;20042;-58
2023/03/02 05:40:34;;;;;;;21.45;15.88;;;1.50;99.90;;;;;;5016599;28;20041;-54
2023/03/02 05:43:01;;;;;;;19.63;14.80;;;1.40;99.90;;;;;;5017134;28;20042;-54
2023/03/02 05:45:28;;;;;;;20.63;15.30;;;1.40;99.90;;;;;;5016847;28;20038;-57
2023/03/02 05:47:54;;;;;;;21.02;15.23;;;1.40;99.90;;;;;;5016487;28;20069;-58
2023/03/02 05:50:21;;;;;;;21.58;15.93;;;1.40;99.90;;;;;;5016850;28;20057;-60
2023/03/02 05:52:48;;;;;;;21.42;15.25;;;1.40;99.90;;;;;;5016610;28;20042;-58
2023/03/02 05:55:14;;;;;;;22.23;15.95;;;1.40;99.90;;;;;;5017212;28;20477;-59
2023/03/02 05:57:41;;;;;;;21.80;15.68;;;1.30;99.90;;;;;;5015899;28;20393;-59
2023/03/02 06:00:08;;;;;;;20.38;16.00;;;1.30;99.90;;;;;;5015140;28;20112;-58
2023/03/02 06:02:39;;;;;;;21.42;15.40;;;1.30;99.90;;;;;;5016420;28;20485;-57
2023/03/02 06:05:05;;;;;;;22.45;16.25;;;1.30;99.90;;;;;;5016354;28;20042;-58
2023/03/02 06:07:32;;;;;;;21.27;15.07;;;1.30;99.90;;;;;;5016232;28;20042;-56
2023/03/02 06:09:59;;;;;;;21.35;15.65;;;1.20;99.90;;;;;;5016527;28;20052;-56
2023/03/02 06:12:26;;;;;;;20.70;15.98;;;1.20;99.90;;;;;;5016252;28;20049;-59
2023/03/02 06:14:53;;;;;;;22.00;15.65;;;1.20;99.90;;;;;;5016287;28;20465;-56
2023/03/02 06:17:19;;;;;;;21.65;16.52;;;1.10;99.90;;;;;;5016302;28;20053;-58
2023/03/02 06:19:46;;;;;;;23.23;16.27;;;1.10;99.90;;;;;;5016077;28;20497;-58
2023/03/02 06:22:13;;;;;;;20.88;15.32;;;1.10;99.90;;;;;;5016026;28;20092;-55
2023/03/02 06:24:39;;;;;;;20.23;15.02;;;1.00;99.90;;;;;;5016484;28;20477;-54
2023/03/02 06:27:06;;;;;;;18.90;14.73;;;1.00;99.90;;;;;;5016176;28;20092;-59
2023/03/02 06:29:33;;;;;;;22.38;15.73;;;1.00;99.90;;;;;;5014695;28;20370;-56
2023/03/02 06:31:59;;;;;;;23.45;16.05;;;0.90;99.90;;;;;;5016129;28;20080;-57
2023/03/02 06:34:28;;;;;;;25.70;15.85;;;0.90;99.90;;;;;;5016055;28;20046;-57
2023/03/02 06:36:55;;;;;;;23.08;16.05;;;0.80;99.90;;;;;;5016208;28;20125;-53
2023/03/02 06:39:21;;;;;;;23.80;16.23;;;0.90;99.90;;;;;;5016100;28;20128;-57
2023/03/02 06:41:48;;;;;;;24.17;15.55;;;0.80;99.90;;;;;;5015729;28;20419;-57
2023/03/02 06:44:15;;;;;;;21.08;15.40;;;0.90;99.90;;;;;;5015639;28;20374;-55
2023/03/02 06:46:41;;;;;;;25.02;16.88;;;0.90;99.90;;;;;;5016140;28;20053;-59
2023/03/02 06:49:08;;;;;;;22.63;17.00;;;0.90;99.90;;;;;;5016053;28;20042;-54
2023/03/02 06:51:35;;;;;;;24.65;17.75;;;0.90;99.90;;;;;;5015549;28;20045;-59
2023/03/02 06:54:02;;;;;;;26.65;17.77;;;0.90;99.90;;;;;;5015568;28;20045;-58
2023/03/02 06:56:28;;;;;;;28.90;19.00;;;0.90;99.90;;;;;;5015760;28;20045;-58
2023/03/02 06:58:55;;;;;;;24.00;17.98;;;0.90;99.90;;;;;;5014395;28;20046;-57
2023/03/02 07:01:22;;;;;;;25.95;18.58;;;0.90;99.90;;;;;;5015726;28;20092;-54
2023/03/02 07:03:49;;;;;;;25.63;19.45;;;0.90;99.90;;;;;;5014431;28;20042;-59
2023/03/02 07:06:16;;;;;;;26.08;18.25;;;0.90;99.90;;;;;;5014199;28;20133;-53
2023/03/02 07:08:43;;;;;;;26.63;17.88;;;0.90;99.90;;;;;;5014171;28;20045;-58
2023/03/02 07:11:09;;;;;;;21.52;16.48;;;0.80;99.90;;;;;;5014215;28;20073;-58
2023/03/02 07:13:39;;;;;;;24.02;17.58;;;0.80;99.90;;;;;;5014033;28;20057;-58
2023/03/02 07:16:06;;;;;;;29.90;19.67;;;0.80;99.90;;;;;;5014296;28;20038;-55
2023/03/02 07:18:32;;;;;;;24.10;17.50;;;0.80;99.90;;;;;;5015007;28;20045;-59
2023/03/02 07:20:59;;;;;;;29.80;18.10;;;0.80;99.90;;;;;;5015585;28;20096;-54
2023/03/02 07:23:26;;;;;;;26.73;18.85;;;0.80;99.90;;;;;;5015050;28;20436;-58
2023/03/02 07:25:53;;;;;;;26.15;18.77;;;0.80;99.90;;;;;;5013957;28;20053;-60
2023/03/02 07:28:20;;;;;;;30.88;20.92;;;0.80;99.90;;;;;;5015029;28;20092;-58
2023/03/02 07:30:47;;;;;;;33.15;21.90;;;0.90;99.90;;;;;;5015342;28;20050;-58
2023/03/02 07:33:14;;;;;;;34.70;22.48;;;0.90;99.90;;;;;;5015115;28;20090;-51
2023/03/02 07:35:41;;;;;;;32.38;22.42;;;1.00;99.90;;;;;;5015460;28;20042;-55
2023/03/02 07:38:07;;;;;;;31.52;23.20;;;1.10;99.90;;;;;;5014931;28;20124;-59
2023/03/02 07:40:36;;;;;;;33.63;22.73;;;1.20;99.90;;;;;;5014410;28;20444;-52
2023/03/02 07:43:03;;;;;;;36.05;24.20;;;1.30;99.90;;;;;;5013295;28;20480;-55
2023/03/02 07:45:29;;;;;;;29.02;22.73;;;1.40;99.90;;;;;;5014893;28;20050;-57
2023/03/02 07:47:56;;;;;;;30.88;22.27;;;1.50;99.90;;;;;;5015107;28;20041;-57
2023/03/02 07:50:23;;;;;;;33.65;23.65;;;1.60;99.90;;;;;;5014962;28;20096;-58
2023/03/02 07:52:50;;;;;;;30.35;22.70;;;1.70;99.90;;;;;;5013534;28;20096;-57
2023/03/02 07:55:16;;;;;;;27.70;21.48;;;1.80;99.90;;;;;;5013006;28;20153;-58
2023/03/02 07:57:43;;;;;;;32.53;22.27;;;1.80;99.90;;;;;;5013271;28;20054;-57
2023/03/02 08:00:10;;;;;;;28.70;22.50;;;2.00;99.90;;;;;;5013417;28;20042;-54
2023/03/02 08:02:37;;;;;;;30.10;22.90;;;2.00;99.90;;;;;;5013182;28;20050;-56
2023/03/02 08:05:03;;;;;;;28.55;22.13;;;2.10;99.90;;;;;;5013149;28;20042;-55
2023/03/02 08:07:30;;;;;;;31.00;22.83;;;2.20;99.90;;;;;;5013957;28;20042;-55
2023/03/02 08:09:59;;;;;;;31.60;23.33;;;2.30;99.90;;;;;;5014611;28;20045;-54
2023/03/02 08:12:26;;;;;;;31.60;22.98;;;2.30;99.90;;;;;;5014438;28;20077;-55
2023/03/02 08:14:53;;;;;;;29.42;21.80;;;2.40;99.90;;;;;;5015070;28;20125;-58
2023/03/02 08:17:20;;;;;;;30.23;23.30;;;2.50;99.90;;;;;;5014715;28;20049;-59
2023/03/02 08:19:46;;;;;;;33.28;22.08;;;2.60;99.90;;;;;;5014662;28;20046;-62
2023/03/02 08:22:13;;;;;;;30.45;22.80;;;2.60;99.90;;;;;;5014405;28;20079;-58
2023/03/02 08:24:40;;;;;;;32.42;22.10;;;2.70;99.90;;;;;;5014318;28;20096;-53
2023/03/02 08:27:07;;;;;;;27.60;22.08;;;2.70;99.90;;;;;;5013952;28;20045;-59
2023/03/02 08:29:34;;;;;;;34.35;21.90;;;2.80;99.90;;;;;;5014006;28;20041;-56
2023/03/02 08:32:00;;;;;;;33.92;22.85;;;2.80;99.90;;;;;;5014265;28;20049;-59
2023/03/02 08:34:27;;;;;;;33.17;23.25;;;2.80;99.90;;;;;;5014104;28;20082;-58
2023/03/02 08:36:54;;;;;;;30.08;23.08;;;2.90;99.90;;;;;;5012784;28;20049;-59
2023/03/02 08:39:22;;;;;;;31.33;23.27;;;2.90;99.90;;;;;;5014229;28;20077;-60
2023/03/02 08:41:49;;;;;;;31.67;21.98;;;3.00;99.90;;;;;;5014327;28;20457;-57
2023/03/02 08:44:16;;;;;;;32.50;22.75;;;3.00;99.90;;;;;;5014217;28;20034;-55
2023/03/02 08:46:43;;;;;;;38.30;24.15;;;3.10;99.90;;;;;;5014168;28;20038;-56
2023/03/02 08:49:10;;;;;;;29.65;22.50;;;3.20;99.90;;;;;;5014263;28;20092;-59
2023/03/02 08:51:36;;;;;;;30.85;23.25;;;3.30;99.90;;;;;;5013801;28;20074;-56
2023/03/02 08:54:03;;;;;;;31.95;23.38;;;3.30;99.90;;;;;;5013470;28;20069;-57
2023/03/02 08:56:30;;;;;;;29.05;23.50;;;3.30;99.90;;;;;;5013903;28;20050;-56
2023/03/02 08:58:57;;;;;;;32.20;23.88;;;3.40;99.90;;;;;;5013889;28;20054;-58
2023/03/02 09:01:24;;;;;;;32.83;23.67;;;3.50;99.90;;;;;;5013757;28;20037;-57
2023/03/02 09:03:50;;;;;;;32.78;23.92;;;3.50;99.90;;;;;;5012507;28;20049;-58
2023/03/02 09:06:17;;;;;;;37.47;25.10;;;3.60;99.90;;;;;;5014132;28;20046;-59
2023/03/02 09:08:44;;;;;;;31.65;24.92;;;3.70;99.90;;;;;;5016593;28;20038;-57
2023/03/02 09:11:11;;;;;;;31.60;24.83;;;3.80;99.90;;;;;;5017859;28;20128;-61
2023/03/02 09:13:37;;;;;;;34.15;25.55;;;3.90;99.90;;;;;;5017532;28;20065;-55
2023/03/02 09:16:04;;;;;;;37.00;26.05;;;4.00;99.90;;;;;;5017015;28;20050;-57
2023/03/02 09:18:31;;;;;;;32.70;24.65;;;4.10;99.90;;;;;;5017696;28;20117;-56
2023/03/02 09:20:58;;;;;;;35.88;25.15;;;4.10;99.90;;;;;;5017652;28;20421;-60
2023/03/02 09:23:26;;;;;;;34.25;26.17;;;4.20;99.90;;;;;;5017615;28;20488;-60
2023/03/02 09:25:53;;;;;;;29.90;25.08;;;4.20;99.90;;;;;;5017487;28;20042;-59
2023/03/02 09:28:23;;;;;;;31.27;24.92;;;4.20;99.90;;;;;;5016547;28;20485;-59
2023/03/02 09:30:50;;;;;;;28.88;24.20;;;4.30;99.90;;;;;;5017638;28;20477;-58
2023/03/02 09:33:16;;;;;;;32.47;24.20;;;4.40;99.90;;;;;;5016034;28;20077;-57
2023/03/02 09:35:44;;;;;;;38.58;25.50;;;4.40;99.90;;;;;;5017224;28;20052;-55
2023/03/02 09:38:14;;;;;;;35.00;26.52;;;4.50;99.90;;;;;;5015770;28;20144;-60
2023/03/02 09:40:41;;;;;;;32.55;23.55;;;4.60;99.90;;;;;;5017335;28;20038;-59
2023/03/02 09:43:08;;;;;;;32.75;25.27;;;4.60;99.90;;;;;;5015693;28;20136;-57
2023/03/02 09:45:35;;;;;;;36.10;24.77;;;4.60;99.90;;;;;;5017369;28;20042;-60
2023/03/02 09:48:02;;;;;;;33.80;25.48;;;4.60;99.90;;;;;;5017352;28;20044;-59
2023/03/02 09:50:29;;;;;;;32.10;24.25;;;4.60;99.90;;;;;;5016867;28;20038;-57
2023/03/02 09:52:56;;;;;;;34.33;24.63;;;4.80;99.90;;;;;;5017085;28;20077;-56
2023/03/02 09:55:23;;;;;;;30.67;23.55;;;4.90;99.90;;;;;;5016821;28;20038;-56
2023/03/02 09:57:50;;;;;;;32.15;24.13;;;5.00;99.90;;;;;;5016947;28;20053;-56
2023/03/02 10:00:17;;;;;;;30.25;23.58;;;5.00;99.90;;;;;;5017076;28;20045;-58
2023/03/02 10:02:46;;;;;;;27.67;23.17;;;5.10;99.90;;;;;;5016733;28;20065;-61
2023/03/02 10:05:13;;;;;;;33.35;24.58;;;5.10;99.90;;;;;;5016599;28;20056;-58
2023/03/02 10:07:40;;;;;;;35.97;22.98;;;5.20;99.90;;;;;;5016702;28;20500;-61
2023/03/02 10:10:06;;;;;;;32.17;24.77;;;5.20;99.90;;;;;;5016510;28;20057;-59
2023/03/02 10:12:33;;;;;;;32.28;24.27;;;5.20;99.90;;;;;;5016403;28;20456;-58
2023/03/02 10:15:00;;;;;;;28.80;23.67;;;5.20;99.90;;;;;;5016974;28;20077;-57
2023/03/02 10:17:27;;;;;;;27.80;23.45;;;5.30;99.90;;;;;;5016210;28;20087;-59
2023/03/02 10:19:53;;;;;;;28.23;22.02;;;5.40;99.90;;;;;;5016246;28;20049;-59
2023/03/02 10:22:20;;;;;;;30.33;23.20;;;5.40;99.90;;;;;;5016769;28;20042;-58
2023/03/02 10:24:47;;;;;;;27.63;22.70;;;5.50;99.90;;;;;;5016265;28;20046;-56
2023/03/02 10:27:14;;;;;;;26.88;21.67;;;5.50;99.90;;;;;;5016506;28;20084;-56
2023/03/02 10:29:40;;;;;;;35.00;22.27;;;5.70;99.90;;;;;;5016392;28;20103;-56
2023/03/02 10:32:07;;;;;;;27.20;22.23;;;5.70;99.90;;;;;;5016419;28;20049;-57
2023/03/02 10:34:34;;;;;;;28.65;21.10;;;5.70;99.90;;;;;;5016286;28;20053;-55
2023/03/02 10:37:01;;;;;;;25.33;22.02;;;5.70;99.90;;;;;;5016273;28;20042;-59
2023/03/02 10:39:28;;;;;;;27.80;21.67;;;5.70;99.90;;;;;;5016671;28;20046;-60
2023/03/02 10:41:55;;;;;;;31.20;22.10;;;5.80;99.90;;;;;;5016258;28;20122;-60
2023/03/02 10:44:21;;;;;;;26.23;21.35;;;5.90;99.90;;;;;;5016632;28;20104;-58
2023/03/02 10:46:50;;;;;;;29.15;22.40;;;5.90;99.90;;;;;;5016292;28;20050;-59
2023/03/02 10:49:16;;;;;;;27.38;20.48;;;6.00;99.90;;;;;;5016057;28;20038;-60
2023/03/02 10:51:46;;;;;;;29.85;21.92;;;6.00;99.90;;;;;;5016263;28;20041;-59
2023/03/02 10:54:13;;;;;;;27.02;22.23;;;6.10;99.90;;;;;;5015810;28;20116;-60
2023/03/02 10:56:40;;;;;;;27.10;20.77;;;6.10;99.90;;;;;;5016126;28;20050;-59
2023/03/02 10:59:06;;;;;;;28.45;21.65;;;6.20;99.90;;;;;;5016369;28;20485;-60
2023/03/02 11:01:33;;;;;;;27.15;21.08;;;6.10;99.90;;;;;;5015734;28;20084;-58
2023/03/02 11:04:00;;;;;;;27.80;20.42;;;6.20;99.90;;;;;;5015657;28;20444;-59
2023/03/02 11:06:27;;;;;;;26.48;21.27;;;6.20;99.90;;;;;;5015517;28;20045;-59
2023/03/02 11:08:54;;;;;;;24.30;20.45;;;6.30;99.90;;;;;;5015667;28;20045;-59
2023/03/02 11:11:20;;;;;;;27.05;20.50;;;6.20;99.90;;;;;;5015480;28;20096;-58
2023/03/02 11:13:47;;;;;;;27.92;19.88;;;6.30;99.90;;;;;;5015014;28;20064;-61
2023/03/02 11:16:14;;;;;;;27.60;19.73;;;6.30;99.90;;;;;;5014271;28;20137;-58
2023/03/02 11:18:41;;;;;;;21.73;18.23;;;6.40;99.90;;;;;;5015557;28;20073;-54
2023/03/02 11:21:07;;;;;;;23.95;19.08;;;6.40;99.90;;;;;;5015303;28;20046;-60
2023/03/02 11:23:34;;;;;;;22.90;18.27;;;6.50;99.90;;;;;;5015460;28;20061;-59
2023/03/02 11:26:01;;;;;;;24.65;18.98;;;6.40;99.90;;;;;;5015581;28;20420;-56
2023/03/02 11:28:28;;;;;;;22.52;18.63;;;6.30;99.90;;;;;;5014411;28;20113;-60
2023/03/02 11:30:55;;;;;;;26.27;19.85;;;6.30;99.90;;;;;;5015551;28;20046;-57
2023/03/02 11:33:21;;;;;;;21.85;18.38;;;6.40;99.90;;;;;;5015318;28;20473;-58
2023/03/02 11:35:48;;;;;;;27.98;19.20;;;6.50;99.90;;;;;;5015018;28;20050;-59
2023/03/02 11:38:15;;;;;;;21.85;18.48;;;6.50;99.90;;;;;;5015555;28;20048;-60
2023/03/02 11:40:42;;;;;;;25.17;18.52;;;6.60;99.90;;;;;;5014887;28;20046;-60
2023/03/02 11:43:12;;;;;;;24.15;17.30;;;6.60;99.90;;;;;;5015021;28;20034;-57
2023/03/02 11:45:40;;;;;;;23.85;16.73;;;6.70;99.90;;;;;;5015252;28;20045;-58
2023/03/02 11:48:07;;;;;;;22.75;16.90;;;6.70;99.90;;;;;;5014855;28;20081;-60
2023/03/02 11:50:34;;;;;;;22.60;17.50;;;6.60;99.90;;;;;;5014933;28;20042;-60
2023/03/02 11:53:01;;;;;;;23.80;18.30;;;6.70;99.90;;;;;;5014899;28;20073;-56
2023/03/02 11:55:27;;;;;;;24.95;18.20;;;6.80;99.90;;;;;;5014921;28;20506;-58
2023/03/02 11:57:55;;;;;;;22.35;17.27;;;6.90;99.90;;;;;;5013794;28;20096;-60
2023/03/02 12:00:21;;;;;;;23.15;17.50;;;6.80;99.90;;;;;;5014770;28;20478;-57
2023/03/02 12:02:48;;;;;;;22.33;17.48;;;6.80;99.90;;;;;;5013373;28;20042;-60
2023/03/02 12:05:15;;;;;;;23.38;17.23;;;6.80;99.90;;;;;;5014456;28;20041;-59
2023/03/02 12:07:43;;;;;;;25.83;17.48;;;6.70;99.90;;;;;;5014582;28;20033;-53
2023/03/02 12:10:10;;;;;;;21.77;17.42;;;6.60;99.90;;;;;;5014714;28;20102;-58
2023/03/02 12:12:37;;;;;;;22.52;16.67;;;6.60;99.90;;;;;;5014419;28;20049;-59
2023/03/02 12:15:04;;;;;;;21.08;16.52;;;6.50;99.90;;;;;;5013422;28;20116;-59
2023/03/02 12:17:32;;;;;;;21.95;17.30;;;6.50;99.90;;;;;;5014764;28;20084;-60
2023/03/02 12:19:59;;;;;;;23.02;16.63;;;6.60;99.90;;;;;;5013473;28;20077;-57
2023/03/02 12:22:25;;;;;;;25.70;16.73;;;6.60;99.90;;;;;;5014695;28;20038;-56
2023/03/02 12:24:52;;;;;;;22.38;16.60;;;6.70;99.90;;;;;;5013133;28;20056;-58
2023/03/02 12:27:21;;;;;;;20.10;17.10;;;6.80;99.90;;;;;;5014585;28;20042;-56
2023/03/02 12:29:48;;;;;;;26.02;17.98;;;6.80;99.90;;;;;;5014384;28;20092;-60
2023/03/02 12:32:15;;;;;;;24.83;18.52;;;6.90;99.90;;;;;;5014732;28;20436;-58
2023/03/02 12:34:42;;;;;;;23.30;17.50;;;6.90;99.90;;;;;;5012876;28;20172;-58
2023/03/02 12:37:09;;;;;;;21.88;17.77;;;6.80;99.90;;;;;;5014421;28;20149;-61
2023/03/02 12:39:35;;;;;;;23.67;16.85;;;6.80;99.90;;;;;;5014049;28;20133;-59